createdAt,value
2018-11-25T00:00:55.369Z,99591.58
2018-11-25T00:03:24.097Z,99586.49
2018-11-25T00:05:51.805Z,99581.84
2018-11-25T00:08:19.452Z,99590.07
2018-11-25T00:10:47.145Z,99585.45
2018-11-25T00:13:15.782Z,99587.38
2018-11-25T00:15:42.696Z,99585.59
2018-11-25T00:18:10.367Z,99588.67
2018-11-25T00:20:38.034Z,99590.44
2018-11-25T00:23:05.775Z,99591.28
2018-11-25T00:25:35.133Z,99586.40
2018-11-25T00:28:04.621Z,99587.42
2018-11-25T00:30:32.414Z,99587.22
2018-11-25T00:33:01.707Z,99592.16
2018-11-25T00:35:29.404Z,99598.83
2018-11-25T00:37:57.122Z,99595.72
2018-11-25T00:40:24.815Z,99591.47
2018-11-25T00:42:52.656Z,99584.52
2018-11-25T00:45:20.380Z,99586.62
2018-11-25T00:47:49.047Z,99585.16
2018-11-25T00:50:16.842Z,99589.07
2018-11-25T00:52:44.562Z,99584.26
2018-11-25T00:55:14.823Z,99580.34
2018-11-25T00:57:42.550Z,99587.97
2018-11-25T01:00:14.584Z,99574.71
2018-11-25T01:02:42.276Z,99582.45
2018-11-25T01:05:10.558Z,99576.58
2018-11-25T01:07:38.296Z,99575.39
2018-11-25T01:10:12.268Z,99579.09
2018-11-25T01:12:39.926Z,99580.38
2018-11-25T01:15:13.124Z,99579.55
2018-11-25T01:17:40.916Z,99575.64
2018-11-25T01:20:11.491Z,99575.64
2018-11-25T01:22:39.180Z,99575.47
2018-11-25T01:25:10.118Z,99568.42
2018-11-25T01:27:38.440Z,99573.06
2018-11-25T01:30:11.132Z,99569.61
2018-11-25T01:32:38.896Z,99561.08
2018-11-25T01:35:09.131Z,99564.77
2018-11-25T01:37:36.856Z,99558.25
2018-11-25T01:40:14.376Z,99562.33
2018-11-25T01:42:42.128Z,99566.59
2018-11-25T01:45:13.121Z,99568.91
2018-11-25T01:47:40.891Z,99563.28
2018-11-25T01:50:11.381Z,99556.28
2018-11-25T01:52:39.185Z,99552.23
2018-11-25T01:55:10.862Z,99554.77
2018-11-25T01:57:38.628Z,99545.93
2018-11-25T02:00:21.416Z,99545.00
2018-11-25T02:02:49.310Z,99539.52
2018-11-25T02:05:17.120Z,99536.33
2018-11-25T02:07:44.855Z,99535.17
2018-11-25T02:10:14.233Z,99533.50
2018-11-25T02:12:41.952Z,99523.17
2018-11-25T02:15:11.217Z,99529.23
2018-11-25T02:17:38.925Z,99526.78
2018-11-25T02:20:16.778Z,99524.17
2018-11-25T02:22:44.458Z,99522.05
2018-11-25T02:25:16.530Z,99518.14
2018-11-25T02:27:44.276Z,99522.50
2018-11-25T02:30:13.936Z,99516.63
2018-11-25T02:32:41.647Z,99526.42
2018-11-25T02:35:10.786Z,99520.02
2018-11-25T02:37:38.498Z,99523.29
2018-11-25T02:40:11.638Z,99526.36
2018-11-25T02:42:39.284Z,99517.80
2018-11-25T02:45:15.772Z,99520.70
2018-11-25T02:47:43.481Z,99519.48
2018-11-25T02:50:31.863Z,99517.81
2018-11-25T02:53:02.164Z,99520.83
2018-11-25T02:55:29.918Z,99520.33
2018-11-25T02:57:57.643Z,99524.69
2018-11-25T03:00:25.381Z,99520.70
2018-11-25T03:02:53.114Z,99526.99
2018-11-25T03:05:20.833Z,99523.30
2018-11-25T03:07:48.539Z,99526.06
2018-11-25T03:10:16.296Z,99522.98
2018-11-25T03:12:43.986Z,99517.33
2018-11-25T03:15:14.964Z,99521.86
2018-11-25T03:17:42.733Z,99522.89
2018-11-25T03:20:12.495Z,99515.55
2018-11-25T03:22:40.157Z,99519.38
2018-11-25T03:25:18.347Z,99519.07
2018-11-25T03:27:46.102Z,99515.70
2018-11-25T03:30:18.697Z,99516.01
2018-11-25T03:32:47.820Z,99519.17
2018-11-25T03:35:15.588Z,99516.70
2018-11-25T03:37:43.277Z,99514.73
2018-11-25T03:40:12.841Z,99508.60
2018-11-25T03:42:40.567Z,99514.64
2018-11-25T03:45:17.777Z,99509.98
2018-11-25T03:47:45.604Z,99510.44
2018-11-25T03:50:14.219Z,99511.34
2018-11-25T03:52:41.981Z,99514.97
2018-11-25T03:55:11.107Z,99519.41
2018-11-25T03:57:38.817Z,99507.34
2018-11-25T04:00:14.091Z,99515.22
2018-11-25T04:02:41.864Z,99510.08
2018-11-25T04:05:11.181Z,99507.07
2018-11-25T04:07:38.836Z,99496.80
2018-11-25T04:10:09.175Z,99498.20
2018-11-25T04:12:36.837Z,99501.64
2018-11-25T04:15:07.720Z,99508.13
2018-11-25T04:17:35.430Z,99500.84
2018-11-25T04:20:03.437Z,99493.09
2018-11-25T04:22:31.165Z,99494.20
2018-11-25T04:24:58.865Z,99498.42
2018-11-25T04:27:26.620Z,99494.98
2018-11-25T04:29:54.320Z,99489.73
2018-11-25T04:32:22.010Z,99487.75
2018-11-25T04:34:49.672Z,99485.61
2018-11-25T04:37:17.375Z,99487.07
2018-11-25T04:39:45.040Z,99493.21
2018-11-25T04:42:12.699Z,99496.41
2018-11-25T04:44:40.422Z,99494.76
2018-11-25T04:47:08.192Z,99500.41
2018-11-25T04:49:35.882Z,99491.75
2018-11-25T04:52:03.689Z,99498.13
2018-11-25T04:54:31.396Z,99492.47
2018-11-25T04:56:59.168Z,99491.95
2018-11-25T04:59:26.845Z,99489.07
2018-11-25T05:01:54.575Z,99484.17
2018-11-25T05:04:22.231Z,99475.91
2018-11-25T05:06:50.013Z,99487.41
2018-11-25T05:09:17.703Z,99481.34
2018-11-25T05:11:45.395Z,99484.14
2018-11-25T05:14:13.628Z,99475.95
2018-11-25T05:16:41.386Z,99475.63
2018-11-25T05:19:09.033Z,99475.36
2018-11-25T05:21:36.731Z,99475.63
2018-11-25T05:24:05.105Z,99474.28
2018-11-25T05:26:32.761Z,99473.08
2018-11-25T05:29:00.411Z,99474.11
2018-11-25T05:31:28.300Z,99477.73
2018-11-25T05:33:56.062Z,99474.37
2018-11-25T05:36:23.727Z,99472.09
2018-11-25T05:38:51.420Z,99468.97
2018-11-25T05:41:19.185Z,99478.61
2018-11-25T05:43:46.891Z,99475.40
2018-11-25T05:46:14.660Z,99460.19
2018-11-25T05:48:42.373Z,99461.66
2018-11-25T05:51:10.038Z,99463.95
2018-11-25T05:53:37.805Z,99458.25
2018-11-25T05:56:05.589Z,99465.61
2018-11-25T05:58:33.272Z,99462.41
2018-11-25T06:01:00.935Z,99461.74
2018-11-25T06:03:28.615Z,99461.94
2018-11-25T06:05:56.306Z,99456.99
2018-11-25T06:08:24.030Z,99457.36
2018-11-25T06:10:51.926Z,99458.16
2018-11-25T06:13:19.687Z,99462.73
2018-11-25T06:15:47.423Z,99462.92
2018-11-25T06:18:15.189Z,99465.25
2018-11-25T06:20:42.905Z,99460.65
2018-11-25T06:23:10.572Z,99464.45
2018-11-25T06:25:38.260Z,99469.06
2018-11-25T06:28:06.031Z,99467.91
2018-11-25T06:30:33.704Z,99458.47
2018-11-25T06:33:01.415Z,99464.63
2018-11-25T06:35:29.117Z,99467.52
2018-11-25T06:37:57.653Z,99469.09
2018-11-25T06:40:26.348Z,99471.06
2018-11-25T06:42:54.603Z,99473.22
2018-11-25T06:45:25.778Z,99474.79
2018-11-25T06:47:54.774Z,99473.25
2018-11-25T06:50:22.474Z,99481.25
2018-11-25T06:52:50.267Z,99477.80
2018-11-25T06:55:18.932Z,99483.33
2018-11-25T06:57:47.249Z,99477.47
2018-11-25T07:00:17.374Z,99490.75
2018-11-25T07:02:45.183Z,99484.13
2018-11-25T07:05:13.577Z,99468.57
2018-11-25T07:07:42.274Z,99485.27
2018-11-25T07:10:13.248Z,99478.31
2018-11-25T07:12:41.830Z,99482.73
2018-11-25T07:15:11.776Z,99486.81
2018-11-25T07:17:40.603Z,99492.80
2018-11-25T07:20:11.113Z,99492.91
2018-11-25T07:22:38.848Z,99493.97
2018-11-25T07:25:18.094Z,99492.02
2018-11-25T07:27:46.954Z,99492.03
2018-11-25T07:30:20.361Z,99489.05
2018-11-25T07:32:48.757Z,99495.84
2018-11-25T07:35:16.508Z,99493.10
2018-11-25T07:37:44.244Z,99494.86
2018-11-25T07:40:13.606Z,99495.54
2018-11-25T07:42:41.382Z,99492.56
2018-11-25T07:45:12.302Z,99500.79
2018-11-25T07:47:40.022Z,99508.55
2018-11-25T07:50:10.447Z,99509.41
2018-11-25T07:52:39.036Z,99502.62
2018-11-25T07:55:14.012Z,99509.44
2018-11-25T07:57:42.039Z,99506.19
2018-11-25T08:00:12.906Z,99487.77
2018-11-25T08:02:41.683Z,99496.77
2018-11-25T08:05:09.980Z,99503.11
2018-11-25T08:07:37.703Z,99505.28
2018-11-25T08:10:09.193Z,99511.26
2018-11-25T08:12:36.984Z,99505.42
2018-11-25T08:15:06.867Z,99511.53
2018-11-25T08:17:34.526Z,99506.63
2018-11-25T08:20:02.276Z,99512.58
2018-11-25T08:22:29.953Z,99507.83
2018-11-25T08:24:57.636Z,99501.12
2018-11-25T08:27:25.329Z,99491.82
2018-11-25T08:29:53.059Z,99500.80
2018-11-25T08:32:20.805Z,99504.20
2018-11-25T08:34:48.453Z,99502.67
2018-11-25T08:37:16.190Z,99500.43
2018-11-25T08:39:44.421Z,99499.02
2018-11-25T08:42:12.164Z,99490.20
2018-11-25T08:44:40.278Z,99490.20
2018-11-25T08:47:08.266Z,99493.43
2018-11-25T08:49:36.253Z,99490.23
2018-11-25T08:52:04.185Z,99487.46
2018-11-25T08:54:31.902Z,99493.55
2018-11-25T08:57:00.362Z,99493.33
2018-11-25T08:59:28.057Z,99488.20
2018-11-25T09:01:55.729Z,99489.92
2018-11-25T09:04:23.486Z,99481.58
2018-11-25T09:06:51.233Z,99486.19
2018-11-25T09:09:18.902Z,99489.31
2018-11-25T09:11:46.679Z,99496.67
2018-11-25T09:14:14.527Z,99497.70
2018-11-25T09:16:42.310Z,99492.17
2018-11-25T09:19:10.038Z,99497.95
2018-11-25T09:21:37.753Z,99498.76
2018-11-25T09:24:06.313Z,99492.15
2018-11-25T09:26:34.092Z,99503.23
2018-11-25T09:29:01.891Z,99501.77
2018-11-25T09:31:29.576Z,99499.92
2018-11-25T09:33:57.346Z,99494.91
2018-11-25T09:36:25.010Z,99504.09
2018-11-25T09:38:53.208Z,99495.97
2018-11-25T09:41:21.156Z,99495.81
2018-11-25T09:43:48.833Z,99496.64
2018-11-25T09:46:16.541Z,99499.42
2018-11-25T09:48:44.309Z,99496.52
2018-11-25T09:51:12.121Z,99497.92
2018-11-25T09:53:39.873Z,99489.56
2018-11-25T09:56:07.779Z,99484.02
2018-11-25T09:58:35.569Z,99485.95
2018-11-25T10:01:03.633Z,99490.60
2018-11-25T10:03:31.331Z,99489.98
2018-11-25T10:05:59.185Z,99485.36
2018-11-25T10:08:27.053Z,99483.09
2018-11-25T10:10:55.041Z,99478.83
2018-11-25T10:13:22.929Z,99473.34
2018-11-25T10:15:50.694Z,99480.81
2018-11-25T10:18:18.469Z,99479.10
2018-11-25T10:20:46.736Z,99477.67
2018-11-25T10:23:14.466Z,99480.70
2018-11-25T10:25:42.213Z,99482.30
2018-11-25T10:28:09.952Z,99476.16
2018-11-25T10:30:37.705Z,99474.36
2018-11-25T10:33:08.268Z,99471.70
2018-11-25T10:35:35.993Z,99468.22
2018-11-25T10:38:04.493Z,99461.47
2018-11-25T10:40:32.225Z,99453.50
2018-11-25T10:42:59.881Z,99452.06
2018-11-25T10:45:28.124Z,99451.66
2018-11-25T10:47:56.983Z,99453.34
2018-11-25T10:50:24.721Z,99448.80
2018-11-25T10:52:52.479Z,99449.03
2018-11-25T10:55:21.221Z,99442.97
2018-11-25T10:57:50.666Z,99437.98
2018-11-25T11:00:30.008Z,99437.19
2018-11-25T11:03:03.540Z,99434.91
2018-11-25T11:05:37.031Z,99434.23
2018-11-25T11:08:05.513Z,99429.05
2018-11-25T11:10:33.219Z,99429.37
2018-11-25T11:13:00.893Z,99429.48
2018-11-25T11:15:28.662Z,99421.12
2018-11-25T11:17:56.404Z,99418.28
2018-11-25T11:20:24.096Z,99420.34
2018-11-25T11:22:51.785Z,99417.23
2018-11-25T11:25:19.499Z,99421.57
2018-11-25T11:27:47.317Z,99418.00
2018-11-25T11:30:15.005Z,99419.30
2018-11-25T11:32:45.076Z,99415.30
2018-11-25T11:35:12.922Z,99410.73
2018-11-25T11:37:40.696Z,99411.58
2018-11-25T11:40:10.657Z,99407.37
2018-11-25T11:42:38.444Z,99400.54
2018-11-25T11:45:14.573Z,99405.91
2018-11-25T11:47:43.404Z,99405.86
2018-11-25T11:50:14.908Z,99400.59
2018-11-25T11:52:42.642Z,99393.14
2018-11-25T11:55:12.784Z,99405.15
2018-11-25T11:57:42.895Z,99394.52
2018-11-25T12:00:41.784Z,99399.45
2018-11-25T12:03:09.560Z,99394.90
2018-11-25T12:05:38.228Z,99400.52
2018-11-25T12:08:13.177Z,99399.59
2018-11-25T12:10:40.932Z,99405.06
2018-11-25T12:13:09.171Z,99398.86
2018-11-25T12:15:37.793Z,99397.39
2018-11-25T12:18:07.132Z,99391.89
2018-11-25T12:20:34.941Z,99385.45
2018-11-25T12:23:04.108Z,99382.55
2018-11-25T12:25:33.136Z,99381.70
2018-11-25T12:28:00.888Z,99373.94
2018-11-25T12:30:28.722Z,99371.23
2018-11-25T12:32:57.103Z,99363.86
2018-11-25T12:35:25.591Z,99361.63
2018-11-25T12:37:54.350Z,99370.75
2018-11-25T12:40:22.678Z,99365.36
2018-11-25T12:42:54.248Z,99361.06
2018-11-25T12:45:22.272Z,99361.72
2018-11-25T12:47:50.094Z,99359.58
2018-11-25T12:50:22.124Z,99355.41
2018-11-25T12:52:52.075Z,99358.63
2018-11-25T12:55:21.533Z,99355.69
2018-11-25T12:57:49.921Z,99358.39
2018-11-25T13:00:22.529Z,99361.95
2018-11-25T13:02:50.747Z,99366.51
2018-11-25T13:05:18.475Z,99358.17
2018-11-25T13:07:46.830Z,99362.54
2018-11-25T13:10:14.620Z,99364.73
2018-11-25T13:12:42.982Z,99357.99
2018-11-25T13:15:10.714Z,99355.68
2018-11-25T13:17:38.428Z,99355.89
2018-11-25T13:20:10.391Z,99355.61
2018-11-25T13:22:39.548Z,99352.07
2018-11-25T13:25:10.172Z,99352.28
2018-11-25T13:27:38.815Z,99349.74
2018-11-25T13:30:21.910Z,99344.56
2018-11-25T13:32:52.008Z,99338.61
2018-11-25T13:35:19.757Z,99337.17
2018-11-25T13:37:47.539Z,99335.41
2018-11-25T13:40:16.987Z,99336.04
2018-11-25T13:42:44.714Z,99334.58
2018-11-25T13:45:12.603Z,99338.86
2018-11-25T13:47:41.340Z,99339.69
2018-11-25T13:50:11.825Z,99341.81
2018-11-25T13:52:39.599Z,99347.69
2018-11-25T13:55:18.099Z,99344.52
2018-11-25T13:57:47.320Z,99331.03
2018-11-25T14:00:30.466Z,99326.02
2018-11-25T14:02:59.624Z,99328.08
2018-11-25T14:05:27.381Z,99327.38
2018-11-25T14:07:55.326Z,99331.02
2018-11-25T14:10:28.860Z,99329.98
2018-11-25T14:12:56.571Z,99328.56
2018-11-25T14:15:25.037Z,99326.09
2018-11-25T14:17:54.118Z,99321.90
2018-11-25T14:20:21.894Z,99325.86
2018-11-25T14:22:49.653Z,99320.34
2018-11-25T14:25:21.248Z,99328.30
2018-11-25T14:27:52.017Z,99333.98
2018-11-25T14:30:23.221Z,99329.48
2018-11-25T14:32:51.847Z,99331.28
2018-11-25T14:35:19.543Z,99334.39
2018-11-25T14:37:47.349Z,99333.21
2018-11-25T14:40:18.411Z,99330.63
2018-11-25T14:42:46.306Z,99332.23
2018-11-25T14:45:17.958Z,99333.56
2018-11-25T14:47:46.480Z,99335.73
2018-11-25T14:50:17.913Z,99335.09
2018-11-25T14:52:49.041Z,99327.39
2018-11-25T14:55:17.279Z,99332.20
2018-11-25T14:57:45.146Z,99330.81
2018-11-25T15:00:16.055Z,99331.09
2018-11-25T15:02:45.800Z,99333.12
2018-11-25T15:05:46.949Z,99337.98
2018-11-25T15:08:22.499Z,99324.30
2018-11-25T15:10:50.374Z,99325.01
2018-11-25T15:13:19.402Z,99330.16
2018-11-25T15:15:47.201Z,99330.90
2018-11-25T15:18:15.260Z,99325.42
2018-11-25T15:20:43.126Z,99327.05
2018-11-25T15:23:13.383Z,99328.82
2018-11-25T15:25:46.626Z,99335.64
2018-11-25T15:28:14.779Z,99328.63
2018-11-25T15:30:42.555Z,99332.77
2018-11-25T15:33:10.288Z,99328.50
2018-11-25T15:35:38.288Z,99325.78
2018-11-25T15:38:06.765Z,99325.90
2018-11-25T15:40:35.637Z,99323.28
2018-11-25T15:43:03.492Z,99325.52
2018-11-25T15:45:31.766Z,99327.20
2018-11-25T15:48:02.294Z,99324.27
2018-11-25T15:50:30.963Z,99320.23
2018-11-25T15:52:58.954Z,99312.39
2018-11-25T15:55:27.628Z,99319.77
2018-11-25T15:57:56.328Z,99313.00
2018-11-25T16:00:24.712Z,99318.22
2018-11-25T16:02:52.650Z,99315.27
2018-11-25T16:05:27.539Z,99309.20
2018-11-25T16:07:55.479Z,99309.05
2018-11-25T16:10:23.206Z,99308.84
2018-11-25T16:12:52.151Z,99307.66
2018-11-25T16:15:22.050Z,99304.09
2018-11-25T16:17:50.332Z,99306.34
2018-11-25T16:20:24.289Z,99308.02
2018-11-25T16:24:00.620Z,99306.83
2018-11-25T16:26:32.912Z,99311.08
2018-11-25T16:29:07.152Z,99307.52
2018-11-25T16:31:34.957Z,99305.52
2018-11-25T16:34:03.025Z,99310.38
2018-11-25T16:36:30.751Z,99309.19
2018-11-25T16:38:58.628Z,99311.43
2018-11-25T16:41:26.857Z,99309.63
2018-11-25T16:43:54.936Z,99257.59
2018-11-25T16:46:23.062Z,99318.52
2018-11-25T16:48:50.939Z,99317.63
2018-11-25T16:51:18.619Z,99312.55
2018-11-25T16:53:46.341Z,99313.11
2018-11-25T16:56:15.071Z,99313.27
2018-11-25T16:58:43.066Z,99312.79
2018-11-25T17:01:10.872Z,99316.19
2018-11-25T17:03:38.593Z,99319.94
2018-11-25T17:06:07.831Z,99314.70
2018-11-25T17:08:39.020Z,99311.16
2018-11-25T17:11:07.571Z,99312.59
2018-11-25T17:13:36.207Z,99312.36
2018-11-25T17:16:04.754Z,99318.01
2018-11-25T17:18:32.454Z,99324.08
2018-11-25T17:21:00.207Z,99324.56
2018-11-25T17:23:27.875Z,99314.56
2018-11-25T17:25:55.670Z,99320.83
2018-11-25T17:28:23.717Z,99319.68
2018-11-25T17:30:54.837Z,99319.21
2018-11-25T17:33:22.624Z,99320.78
2018-11-25T17:35:50.449Z,99326.81
2018-11-25T17:38:18.159Z,99328.45
2018-11-25T17:40:46.109Z,99328.67
2018-11-25T17:43:20.550Z,99329.66
2018-11-25T17:45:48.664Z,99321.70
2018-11-25T17:48:16.452Z,99327.84
2018-11-25T17:50:45.738Z,99323.32
2018-11-25T17:53:20.459Z,99325.80
2018-11-25T17:55:41.752Z,99323.92
2018-11-25T17:58:09.798Z,99322.00
2018-11-25T18:00:49.069Z,99325.09
2018-11-25T18:03:22.129Z,99323.55
2018-11-25T18:05:50.192Z,99324.20
2018-11-25T18:08:18.086Z,99326.36
2018-11-25T18:10:45.887Z,99321.37
2018-11-25T18:13:15.457Z,99328.40
2018-11-25T18:15:43.974Z,99330.03
2018-11-25T18:18:18.788Z,99334.73
2018-11-25T18:20:51.331Z,99332.64
2018-11-25T18:23:19.119Z,99329.52
2018-11-25T18:25:46.825Z,99329.66
2018-11-25T18:28:16.430Z,99330.41
2018-11-25T18:30:44.985Z,99331.34
2018-11-25T18:33:13.026Z,99337.75
2018-11-25T18:35:41.562Z,99336.45
2018-11-25T18:38:09.270Z,99333.10
2018-11-25T18:40:37.161Z,99342.17
2018-11-25T18:43:06.313Z,99344.27
2018-11-25T18:45:35.089Z,99337.30
2018-11-25T18:48:02.913Z,99342.55
2018-11-25T18:50:39.154Z,99341.49
2018-11-25T18:53:08.833Z,99344.98
2018-11-25T18:55:35.250Z,99340.59
2018-11-25T18:58:03.008Z,99345.23
2018-11-25T19:02:43.054Z,99346.27
2018-11-25T19:05:10.938Z,99338.73
2018-11-25T19:07:38.692Z,99341.42
2018-11-25T19:10:16.122Z,99334.11
2018-11-25T19:12:44.530Z,99347.75
2018-11-25T19:15:17.096Z,99345.66
2018-11-25T19:17:44.910Z,99341.34
2018-11-25T19:20:26.895Z,99341.91
2018-11-25T19:22:56.034Z,99346.86
2018-11-25T19:25:24.754Z,99340.14
2018-11-25T19:27:53.910Z,99343.84
2018-11-25T19:30:26.315Z,99338.40
2018-11-25T19:32:50.411Z,99339.59
2018-11-25T19:35:20.968Z,99344.81
2018-11-25T19:37:50.458Z,99343.52
2018-11-25T19:41:10.768Z,99341.47
2018-11-25T19:43:39.450Z,99344.28
2018-11-25T19:46:08.404Z,99337.97
2018-11-25T19:48:37.351Z,99338.73
2018-11-25T19:51:05.571Z,99341.44
2018-11-25T19:53:33.337Z,99343.98
2018-11-25T19:56:01.848Z,99334.05
2018-11-25T19:58:30.363Z,99334.70
2018-11-25T20:00:58.934Z,99337.55
2018-11-25T20:03:26.651Z,99340.01
2018-11-25T20:05:57.440Z,99338.55
2018-11-25T20:08:26.221Z,99341.44
2018-11-25T20:10:55.291Z,99341.11
2018-11-25T20:13:23.166Z,99343.98
2018-11-25T20:15:52.120Z,99346.25
2018-11-25T20:18:19.883Z,99349.12
2018-11-25T20:20:53.898Z,99344.28
2018-11-25T20:23:21.683Z,99345.88
2018-11-25T20:25:49.883Z,99345.28
2018-11-25T20:28:17.682Z,99341.11
2018-11-25T20:30:45.422Z,99346.19
2018-11-25T20:33:19.066Z,99343.74
2018-11-25T20:35:47.389Z,99344.92
2018-11-25T20:38:21.014Z,99345.98
2018-11-25T20:40:50.776Z,99336.80
2018-11-25T20:43:18.904Z,99337.59
2018-11-25T20:45:53.599Z,99340.23
2018-11-25T20:48:22.065Z,99339.13
2018-11-25T20:50:50.527Z,99344.03
2018-11-25T20:53:27.660Z,99340.56
2018-11-25T20:56:02.703Z,99339.63
2018-11-25T20:58:30.493Z,99338.67
2018-11-25T21:00:58.254Z,99344.12
2018-11-25T21:03:26.696Z,99339.50
2018-11-25T21:05:54.443Z,99341.98
2018-11-25T21:08:22.267Z,99344.62
2018-11-25T21:10:50.654Z,99340.51
2018-11-25T21:13:19.427Z,99336.56
2018-11-25T21:15:48.052Z,99344.98
2018-11-25T21:18:16.994Z,99337.46
2018-11-25T21:20:51.113Z,99334.08
2018-11-25T21:23:13.134Z,99332.34
2018-11-25T21:25:41.735Z,99331.52
2018-11-25T21:28:09.415Z,99324.73
2018-11-25T21:30:37.188Z,99320.89
2018-11-25T21:33:05.750Z,99319.81
2018-11-25T21:35:33.457Z,99318.01
2018-11-25T21:38:01.220Z,99318.97
2018-11-25T21:40:29.625Z,99313.00
2018-11-25T21:42:57.517Z,99313.92
2018-11-25T21:45:26.393Z,99320.44
2018-11-25T21:47:54.580Z,99316.66
2018-11-25T21:50:25.010Z,99317.49
2018-11-25T21:52:53.184Z,99320.73
2018-11-25T21:55:21.028Z,99314.15
2018-11-25T21:57:48.795Z,99322.36
2018-11-25T22:00:24.439Z,99317.30
2018-11-25T22:02:52.994Z,99317.62
2018-11-25T22:05:24.711Z,99313.92
2018-11-25T22:07:48.694Z,99311.26
2018-11-25T22:10:17.679Z,99312.74
2018-11-25T22:12:45.836Z,99308.13
2018-11-25T22:15:15.297Z,99314.05
2018-11-25T22:17:43.028Z,99303.98
2018-11-25T22:20:13.193Z,99311.23
2018-11-25T22:22:41.700Z,99313.23
2018-11-25T22:25:11.131Z,99307.89
2018-11-25T22:27:39.870Z,99317.27
2018-11-25T22:30:14.174Z,99316.92
2018-11-25T22:32:41.976Z,99331.03
2018-11-25T22:35:13.054Z,99324.79
2018-11-25T22:37:41.997Z,99326.00
2018-11-25T22:40:10.777Z,99326.14
2018-11-25T22:42:39.285Z,99325.90
2018-11-25T22:45:10.042Z,99327.88
2018-11-25T22:47:37.764Z,99319.22
2018-11-25T22:50:08.004Z,99319.46
2018-11-25T22:52:35.729Z,99315.89
2018-11-25T22:55:03.786Z,99320.78
2018-11-25T22:57:31.448Z,99312.02
2018-11-25T22:59:59.195Z,99315.69
2018-11-25T23:02:26.896Z,99314.75
2018-11-25T23:05:12.043Z,99319.15
2018-11-25T23:07:39.780Z,99311.79
2018-11-25T23:10:07.500Z,99313.70
2018-11-25T23:12:35.260Z,99310.48
2018-11-25T23:15:02.983Z,99309.55
2018-11-25T23:17:30.689Z,99320.02
2018-11-25T23:19:58.466Z,99306.86
2018-11-25T23:22:26.124Z,99311.13
2018-11-25T23:24:53.841Z,99312.80
2018-11-25T23:27:22.368Z,99314.03
2018-11-25T23:29:50.074Z,99312.15
2018-11-25T23:32:17.727Z,99311.78
2018-11-25T23:34:45.374Z,99310.68
2018-11-25T23:37:13.083Z,99306.13
2018-11-25T23:39:40.725Z,99304.71
2018-11-25T23:42:08.474Z,99301.52
2018-11-25T23:44:36.306Z,99302.95
2018-11-25T23:47:03.939Z,99299.19
2018-11-25T23:49:31.621Z,99290.06
2018-11-25T23:51:59.312Z,99290.53
2018-11-25T23:54:27.102Z,99297.54
2018-11-25T23:56:54.817Z,99301.92
2018-11-25T23:59:22.546Z,99301.80
